Time;durP1;ratioP1;P1;durP2;ratioP2;P2;SDS_P1;SDS_P2;PMS_P1;PMS_P2;Temp;Humidity;BMP_temperature;BMP_pressure;BME280_temperature;BME280_humidity;BME280_pressure;Samples;Min_cycle;Max_cycle;Signal;HPM_P1;HPM_P2
2021/04/05 00:01:14;;;;;;;0.93;0.70;;;21.60;49.20;;;;;;5031393;28;20474;-82
2021/04/05 00:03:39;;;;;;;0.83;0.70;;;21.60;49.20;;;;;;5047343;28;20184;-82
2021/04/05 00:06:05;;;;;;;0.90;0.70;;;21.60;49.40;;;;;;5048690;28;20176;-82
2021/04/05 00:08:31;;;;;;;1.30;0.70;;;21.60;49.00;;;;;;5031260;28;20501;-82
2021/04/05 00:10:56;;;;;;;0.80;0.60;;;21.60;49.40;;;;;;5048181;28;20172;-81
2021/04/05 00:13:28;;;;;;;0.83;0.63;;;21.60;49.10;;;;;;5031405;28;20250;-82
2021/04/05 00:15:55;;;;;;;0.87;0.70;;;21.60;49.10;;;;;;5048416;28;20166;-82
2021/04/05 00:18:22;;;;;;;1.03;0.63;;;21.60;49.10;;;;;;5048956;28;20406;-82
2021/04/05 00:20:52;;;;;;;0.87;0.70;;;21.60;48.80;;;;;;5048703;28;20529;-82
2021/04/05 00:23:18;;;;;;;1.00;0.77;;;21.60;48.90;;;;;;5049167;28;20434;-82
2021/04/05 00:25:44;;;;;;;0.90;0.60;;;21.60;49.10;;;;;;5049544;28;20405;-83
2021/04/05 00:28:10;;;;;;;0.80;0.70;;;21.60;49.30;;;;;;5049099;28;20398;-83
2021/04/05 00:30:38;;;;;;;0.90;0.67;;;21.50;49.60;;;;;;5049266;28;20425;-83
2021/04/05 00:33:04;;;;;;;0.90;0.70;;;21.50;49.00;;;;;;5031975;28;20482;-83
2021/04/05 00:35:33;;;;;;;0.90;0.70;;;21.50;48.80;;;;;;5032175;28;20429;-82
2021/04/05 00:38:01;;;;;;;0.80;0.63;;;21.60;49.00;;;;;;5049709;28;20403;-83
2021/04/05 00:40:39;;;;;;;0.90;0.70;;;21.50;49.10;;;;;;5031850;28;20489;-83
2021/04/05 00:43:09;;;;;;;0.80;0.60;;;21.50;48.90;;;;;;5032830;28;20434;-82
2021/04/05 00:45:35;;;;;;;1.00;0.80;;;21.50;48.90;;;;;;5049582;28;20474;-82
2021/04/05 00:48:02;;;;;;;1.00;0.70;;;21.60;48.90;;;;;;5032484;28;20426;-82
2021/04/05 00:50:39;;;;;;;0.80;0.60;;;21.50;49.30;;;;;;5032222;28;20985;-81
2021/04/05 00:53:07;;;;;;;0.97;0.70;;;21.50;49.10;;;;;;5032512;28;20426;-82
2021/04/05 00:55:34;;;;;;;0.90;0.70;;;21.50;49.10;;;;;;5031564;28;20425;-82
2021/04/05 00:58:00;;;;;;;0.90;0.70;;;21.50;49.10;;;;;;5049361;28;20465;-82
2021/04/05 01:00:42;;;;;;;1.00;0.80;;;21.50;49.60;;;;;;5031445;28;20426;-81
2021/04/05 01:03:11;;;;;;;1.20;0.87;;;21.50;48.80;;;;;;5049236;28;20398;-82
2021/04/05 01:05:38;;;;;;;0.90;0.70;;;21.50;48.90;;;;;;5031726;28;20421;-82
2021/04/05 01:08:04;;;;;;;1.03;0.80;;;21.50;49.00;;;;;;5048089;28;20410;-83
2021/04/05 01:10:30;;;;;;;0.80;0.60;;;21.50;49.60;;;;;;5049625;28;20517;-83
2021/04/05 01:12:56;;;;;;;0.90;0.70;;;21.50;49.70;;;;;;5052655;28;20963;-83
2021/04/05 01:15:22;;;;;;;1.30;0.87;;;21.50;49.80;;;;;;5034862;28;20417;-83
2021/04/05 01:17:52;;;;;;;1.00;0.70;;;21.50;49.60;;;;;;5053296;28;20790;-83
2021/04/05 01:20:18;;;;;;;0.87;0.67;;;21.70;49.30;;;;;;5052526;28;20254;-83
2021/04/05 01:22:46;;;;;;;0.90;0.70;;;21.50;49.90;;;;;;5035217;28;20481;-82
2021/04/05 01:25:14;;;;;;;1.20;0.80;;;21.50;49.40;;;;;;5052399;28;20398;-83
2021/04/05 01:27:41;;;;;;;1.43;0.70;;;21.50;49.00;;;;;;5052822;28;20488;-82
2021/04/05 01:30:27;;;;;;;0.93;0.70;;;21.80;49.20;;;;;;5034917;28;20426;-83
2021/04/05 01:33:04;;;;;;;1.10;0.70;;;21.50;48.90;;;;;;5052499;28;20390;-82
2021/04/05 01:35:40;;;;;;;0.97;0.70;;;21.50;48.90;;;;;;5035169;28;20475;-83
2021/04/05 01:38:07;;;;;;;1.00;0.80;;;21.50;48.90;;;;;;5034189;28;20472;-83
2021/04/05 01:40:39;;;;;;;1.40;0.80;;;21.50;49.10;;;;;;5034240;28;20419;-83
2021/04/05 01:43:06;;;;;;;1.10;0.80;;;21.50;49.20;;;;;;5034323;28;20419;-82
2021/04/05 01:45:32;;;;;;;0.83;0.60;;;21.40;49.00;;;;;;5051779;28;20411;-83
2021/04/05 01:47:59;;;;;;;1.13;0.70;;;21.50;49.70;;;;;;5034998;28;20418;-83
2021/04/05 01:50:26;;;;;;;1.00;0.70;;;21.50;50.00;;;;;;5034992;28;20426;-82
2021/04/05 01:52:52;;;;;;;1.13;0.80;;;21.40;49.10;;;;;;5034573;28;20422;-82
2021/04/05 01:55:19;;;;;;;0.90;0.60;;;21.50;49.50;;;;;;5052342;28;20428;-82
2021/04/05 01:57:45;;;;;;;0.80;0.70;;;21.40;49.10;;;;;;5034368;28;20203;-82
2021/04/05 02:00:15;;;;;;;0.80;0.60;;;21.50;49.50;;;;;;5051776;28;20414;-82
2021/04/05 02:02:47;;;;;;;0.90;0.60;;;21.50;49.10;;;;;;5052447;28;20943;-83
2021/04/05 02:05:15;;;;;;;1.00;0.70;;;21.50;49.30;;;;;;5051301;28;20418;-83
2021/04/05 02:07:41;;;;;;;0.80;0.70;;;21.40;48.90;;;;;;5034348;28;20418;-83
2021/04/05 02:10:15;;;;;;;0.90;0.67;;;21.50;49.80;;;;;;5052150;28;20464;-83
2021/04/05 02:12:42;;;;;;;1.10;0.80;;;21.50;49.20;;;;;;5052116;28;20183;-83
2021/04/05 02:15:12;;;;;;;1.47;0.80;;;21.40;49.50;;;;;;5033814;28;20494;-83
2021/04/05 02:17:38;;;;;;;0.83;0.60;;;21.50;49.10;;;;;;5051705;28;20908;-83
2021/04/05 02:20:09;;;;;;;1.13;0.80;;;21.40;49.10;;;;;;5033595;28;20430;-82
2021/04/05 02:22:41;;;;;;;0.90;0.70;;;21.40;49.20;;;;;;5033883;28;20468;-84
2021/04/05 02:25:11;;;;;;;0.90;0.70;;;21.40;49.20;;;;;;5051785;28;20442;-83
2021/04/05 02:27:37;;;;;;;1.20;0.87;;;21.40;49.50;;;;;;5051694;28;20394;-82
2021/04/05 02:30:05;;;;;;;0.90;0.67;;;21.40;49.50;;;;;;5034081;28;20421;-83
2021/04/05 02:32:33;;;;;;;1.20;0.80;;;21.50;49.50;;;;;;5033959;28;20183;-83
2021/04/05 02:34:59;;;;;;;1.17;0.70;;;21.40;49.00;;;;;;5034340;28;20510;-82
2021/04/05 02:37:27;;;;;;;0.80;0.60;;;21.40;49.20;;;;;;5034207;28;20430;-83
2021/04/05 02:39:53;;;;;;;1.00;0.80;;;21.40;49.20;;;;;;5033969;28;20428;-83
2021/04/05 02:42:19;;;;;;;0.87;0.60;;;21.50;49.60;;;;;;5033695;28;20492;-83
2021/04/05 02:44:46;;;;;;;0.80;0.60;;;21.40;49.30;;;;;;5051407;28;20398;-83
2021/04/05 02:47:12;;;;;;;0.90;0.70;;;21.50;49.10;;;;;;5051045;28;20474;-83
2021/04/05 02:49:40;;;;;;;1.00;0.80;;;21.50;49.50;;;;;;5033547;28;20414;-83
2021/04/05 02:52:07;;;;;;;1.10;0.80;;;21.40;49.00;;;;;;5033987;28;20433;-83
2021/04/05 02:54:33;;;;;;;1.00;0.80;;;21.40;49.20;;;;;;5051264;28;20406;-83
2021/04/05 02:56:59;;;;;;;1.20;0.90;;;21.50;49.20;;;;;;5051244;28;20406;-82
2021/04/05 02:59:25;;;;;;;1.10;0.77;;;21.40;49.70;;;;;;5034081;28;20414;-83
2021/04/05 03:01:52;;;;;;;0.90;0.70;;;21.40;49.20;;;;;;5032892;28;20462;-83
2021/04/05 03:04:18;;;;;;;0.77;0.60;;;21.40;49.00;;;;;;5032690;28;20787;-83
2021/04/05 03:06:45;;;;;;;0.80;0.60;;;21.40;49.40;;;;;;5050573;28;20402;-83
2021/04/05 03:09:13;;;;;;;1.00;0.80;;;21.40;49.10;;;;;;5033342;28;20414;-83
2021/04/05 03:12:34;;;;;;;0.80;0.70;;;21.40;49.70;;;;;;5049489;28;20426;-83
2021/04/05 03:15:03;;;;;;;1.33;0.90;;;21.40;48.90;;;;;;5050694;28;20389;-83
2021/04/05 03:17:30;;;;;;;1.20;0.90;;;21.40;49.90;;;;;;5032883;28;20411;-83
2021/04/05 03:20:00;;;;;;;1.10;0.87;;;21.40;49.00;;;;;;5016740;28;20418;-82
2021/04/05 03:22:26;;;;;;;1.10;0.73;;;21.40;49.30;;;;;;5050392;28;20450;-83
2021/04/05 03:24:54;;;;;;;0.97;0.70;;;21.40;49.20;;;;;;5032672;28;20433;-83
2021/04/05 03:27:20;;;;;;;1.10;0.80;;;21.40;49.20;;;;;;5032212;28;20402;-83
2021/04/05 03:29:47;;;;;;;1.03;0.80;;;21.40;49.60;;;;;;5032480;28;20426;-83
2021/04/05 03:32:16;;;;;;;1.30;0.90;;;21.40;49.10;;;;;;5050553;28;20202;-83
2021/04/05 03:34:46;;;;;;;1.07;0.70;;;21.00;48.90;;;;;;5031779;28;20410;-83
2021/04/05 03:37:17;;;;;;;1.30;0.83;;;21.40;49.10;;;;;;5032434;28;20418;-83
2021/04/05 03:39:43;;;;;;;0.90;0.70;;;21.40;49.30;;;;;;5032386;28;20415;-83
2021/04/05 03:42:16;;;;;;;0.90;0.80;;;21.40;49.10;;;;;;5034595;28;20466;-83
2021/04/05 03:44:56;;;;;;;0.93;0.63;;;21.40;49.30;;;;;;5050735;28;20895;-83
2021/04/05 03:47:47;;;;;;;1.20;1.10;;;21.40;49.00;;;;;;5034412;28;20410;-83
2021/04/05 03:50:26;;;;;;;1.03;0.80;;;21.40;49.10;;;;;;5035898;28;20411;-83
2021/04/05 03:53:37;;;;;;;1.03;0.80;;;21.40;49.30;;;;;;5034251;28;20410;-83
2021/04/05 03:56:10;;;;;;;1.00;0.70;;;21.40;49.00;;;;;;5035343;28;20482;-82
2021/04/05 03:58:38;;;;;;;0.97;0.70;;;21.30;49.10;;;;;;5051148;28;20402;-83
2021/04/05 04:01:14;;;;;;;0.80;0.67;;;21.30;49.20;;;;;;5050965;28;20466;-83
2021/04/05 04:03:53;;;;;;;1.27;0.80;;;21.30;49.20;;;;;;5050942;28;20399;-83
2021/04/05 04:06:25;;;;;;;0.97;0.73;;;21.30;49.20;;;;;;5049631;28;20465;-83
2021/04/05 04:08:52;;;;;;;0.90;0.80;;;21.30;49.80;;;;;;5050004;28;20390;-83
2021/04/05 04:11:24;;;;;;;0.90;0.70;;;21.30;49.40;;;;;;5032363;28;20426;-83
2021/04/05 04:13:52;;;;;;;0.90;0.70;;;21.60;49.60;;;;;;5050133;28;20429;-83
2021/04/05 04:16:20;;;;;;;1.20;0.90;;;21.30;49.30;;;;;;5049470;28;20418;-83
2021/04/05 04:18:46;;;;;;;0.90;0.67;;;21.30;49.60;;;;;;5032093;28;20433;-83
2021/04/05 04:21:13;;;;;;;0.97;0.80;;;21.30;49.80;;;;;;5048374;28;21022;-82
2021/04/05 04:23:40;;;;;;;0.90;0.70;;;21.30;49.30;;;;;;5049549;28;20414;-83
2021/04/05 04:26:06;;;;;;;1.00;0.70;;;21.30;49.40;;;;;;5032313;28;20453;-83
2021/04/05 04:28:34;;;;;;;1.03;0.90;;;21.30;49.50;;;;;;5032155;28;20959;-82
2021/04/05 04:31:03;;;;;;;1.10;0.90;;;21.30;49.30;;;;;;5049819;28;20904;-83
2021/04/05 04:33:32;;;;;;;1.23;0.97;;;21.30;49.40;;;;;;5049648;28;20410;-83
2021/04/05 04:35:58;;;;;;;1.00;0.70;;;21.30;49.20;;;;;;5032589;28;20421;-83
2021/04/05 04:38:25;;;;;;;0.97;0.70;;;21.40;49.80;;;;;;5032272;28;20422;-83
2021/04/05 04:40:51;;;;;;;1.10;0.70;;;21.40;49.30;;;;;;5032975;28;20464;-83
2021/04/05 04:43:18;;;;;;;0.97;0.70;;;21.60;50.10;;;;;;5032467;28;20418;-83
2021/04/05 04:45:46;;;;;;;1.10;0.93;;;21.40;49.20;;;;;;5016434;28;20407;-83
2021/04/05 04:48:22;;;;;;;0.90;0.63;;;21.40;49.80;;;;;;5053281;28;20437;-83
2021/04/05 04:50:48;;;;;;;1.17;1.03;;;21.50;49.20;;;;;;5035543;28;20437;-83
2021/04/05 04:53:14;;;;;;;0.90;0.70;;;21.40;49.90;;;;;;5051920;28;20515;-82
2021/04/05 04:55:40;;;;;;;0.90;0.77;;;21.80;49.90;;;;;;5019113;28;20187;-82
2021/04/05 04:58:06;;;;;;;0.80;0.67;;;21.50;49.00;;;;;;5036096;28;20175;-82
2021/04/05 05:00:33;;;;;;;0.90;0.70;;;21.50;49.60;;;;;;5052756;28;20414;-83
2021/04/05 05:03:05;;;;;;;0.93;0.70;;;21.50;48.90;;;;;;5035384;28;20191;-83
2021/04/05 05:05:33;;;;;;;0.83;0.63;;;21.50;49.10;;;;;;5035167;28;20399;-83
2021/04/05 05:07:59;;;;;;;1.10;0.80;;;21.50;49.00;;;;;;5036030;28;20419;-83
2021/04/05 05:10:25;;;;;;;0.90;0.67;;;21.50;49.30;;;;;;5052477;28;20449;-83
2021/04/05 05:12:51;;;;;;;1.40;0.90;;;21.50;48.80;;;;;;5035786;28;20911;-84
2021/04/05 05:15:18;;;;;;;1.07;0.77;;;21.50;49.00;;;;;;5035081;28;20418;-83
2021/04/05 05:17:50;;;;;;;1.10;0.80;;;21.50;48.90;;;;;;5035659;28;20418;-83
2021/04/05 05:20:18;;;;;;;0.90;0.60;;;21.60;48.90;;;;;;5035378;28;20923;-82
2021/04/05 05:23:00;;;;;;;0.93;0.60;;;21.60;48.90;;;;;;5035582;28;20457;-83
2021/04/05 05:25:27;;;;;;;1.13;0.80;;;21.60;49.00;;;;;;5018869;28;20410;-82
2021/04/05 05:28:01;;;;;;;0.90;0.70;;;21.60;49.10;;;;;;5052418;28;20402;-83
2021/04/05 05:30:27;;;;;;;2.13;0.70;;;21.60;49.00;;;;;;5034518;28;20418;-83
2021/04/05 05:32:54;;;;;;;1.00;0.70;;;21.60;48.80;;;;;;5052835;28;20425;-83
2021/04/05 05:35:22;;;;;;;0.90;0.70;;;21.60;49.00;;;;;;5034589;28;20426;-83
2021/04/05 05:37:48;;;;;;;0.80;0.60;;;21.60;48.90;;;;;;5052305;28;20513;-83
2021/04/05 05:40:20;;;;;;;0.80;0.60;;;21.60;49.00;;;;;;5034962;28;20410;-83
2021/04/05 05:43:10;;;;;;;1.00;0.70;;;21.60;48.80;;;;;;5051648;28;20489;-83
2021/04/05 05:45:55;;;;;;;1.00;0.77;;;21.60;48.70;;;;;;5051001;28;20482;-83
2021/04/05 05:48:42;;;;;;;1.33;0.80;;;21.60;49.70;;;;;;5035369;28;20415;-82
2021/04/05 05:51:17;;;;;;;0.90;0.70;;;21.60;48.70;;;;;;5033987;28;20406;-82
2021/04/05 05:54:20;;;;;;;0.90;0.80;;;21.60;49.00;;;;;;5051766;28;20390;-82
2021/04/05 05:56:53;;;;;;;1.00;0.60;;;21.60;48.70;;;;;;5050451;28;20418;-82
2021/04/05 05:59:36;;;;;;;0.90;0.70;;;21.60;49.00;;;;;;5033998;28;20482;-82
2021/04/05 06:02:15;;;;;;;0.90;0.70;;;21.60;48.70;;;;;;5034909;28;20525;-83
2021/04/05 06:05:06;;;;;;;0.90;0.60;;;21.60;49.00;;;;;;5052682;28;20394;-82
2021/04/05 06:08:10;;;;;;;1.00;0.70;;;21.70;48.70;;;;;;5014912;28;20413;-83
2021/04/05 06:11:04;;;;;;;0.90;0.67;;;21.60;48.70;;;;;;5034218;28;20417;-83
2021/04/05 06:14:03;;;;;;;1.07;0.70;;;21.70;48.80;;;;;;5052501;28;20486;-83
2021/04/05 06:16:34;;;;;;;0.80;0.60;;;21.60;48.80;;;;;;5051794;28;20418;-83
2021/04/05 06:19:19;;;;;;;0.80;0.70;;;21.60;48.80;;;;;;5051933;28;20434;-83
2021/04/05 06:21:57;;;;;;;1.00;0.80;;;21.50;48.70;;;;;;5050821;28;20453;-82
2021/04/05 06:24:53;;;;;;;0.90;0.60;;;21.60;48.80;;;;;;5051956;28;20391;-82
2021/04/05 06:27:41;;;;;;;1.00;0.80;;;21.60;48.80;;;;;;5034270;28;20402;-82
2021/04/05 06:30:13;;;;;;;0.90;0.70;;;21.60;49.30;;;;;;5034203;28;20453;-83
2021/04/05 06:32:56;;;;;;;1.03;0.77;;;21.60;50.00;;;;;;5035077;28;20426;-83
2021/04/05 06:36:00;;;;;;;1.10;0.70;;;21.60;49.00;;;;;;5053829;28;20383;-82
2021/04/05 06:38:31;;;;;;;0.90;0.70;;;21.60;48.80;;;;;;5052458;28;20409;-83
2021/04/05 06:41:16;;;;;;;0.90;0.70;;;21.60;49.20;;;;;;5036344;28;20537;-83
2021/04/05 06:43:49;;;;;;;1.00;0.70;;;21.60;49.10;;;;;;5035469;28;20494;-83
2021/04/05 06:46:41;;;;;;;0.80;0.70;;;21.60;48.90;;;;;;5052628;28;20399;-83
2021/04/05 06:49:45;;;;;;;0.97;0.70;;;21.60;48.80;;;;;;5036142;28;20437;-83
2021/04/05 06:52:24;;;;;;;1.57;0.70;;;21.60;49.10;;;;;;4994211;28;20410;-83
2021/04/05 06:54:50;;;;;;;0.80;0.70;;;21.60;48.80;;;;;;5034105;28;20434;-83
2021/04/05 06:57:48;;;;;;;0.90;0.70;;;21.60;49.80;;;;;;5033448;28;20743;-83
2021/04/05 07:00:32;;;;;;;1.00;0.70;;;21.60;48.80;;;;;;5051098;28;20402;-82
2021/04/05 07:03:24;;;;;;;0.90;0.67;;;21.60;49.00;;;;;;5051281;28;20438;-82
2021/04/05 07:06:15;;;;;;;0.90;0.70;;;21.60;48.80;;;;;;5051207;28;20422;-82
2021/04/05 07:09:09;;;;;;;0.87;0.70;;;21.60;48.80;;;;;;5048681;28;20410;-82
2021/04/05 07:12:08;;;;;;;0.90;0.70;;;21.60;48.80;;;;;;5033806;28;20438;-82
2021/04/05 07:14:51;;;;;;;1.37;0.80;;;21.60;49.10;;;;;;5049520;28;20414;-83
2021/04/05 07:17:28;;;;;;;0.87;0.67;;;21.60;49.20;;;;;;5032991;28;20406;-82
2021/04/05 07:20:12;;;;;;;1.03;0.80;;;21.60;48.90;;;;;;5033935;28;20418;-83
2021/04/05 07:22:43;;;;;;;0.90;0.70;;;21.60;49.60;;;;;;5033190;28;20462;-83
2021/04/05 07:25:22;;;;;;;0.97;0.70;;;21.30;48.90;;;;;;5033397;28;20417;-83
2021/04/05 07:28:00;;;;;;;0.80;0.60;;;21.60;48.80;;;;;;5026291;28;20449;-83
2021/04/05 07:30:45;;;;;;;0.80;0.70;;;21.60;49.40;;;;;;5030653;28;20458;-83
2021/04/05 07:33:36;;;;;;;0.90;0.70;;;21.60;49.50;;;;;;5029518;28;20451;-82
2021/04/05 07:36:22;;;;;;;0.80;0.60;;;21.60;48.80;;;;;;5029665;28;20448;-83
2021/04/05 07:39:00;;;;;;;1.10;0.70;;;21.60;49.00;;;;;;4988801;28;20417;-83
2021/04/05 07:42:03;;;;;;;1.83;0.80;;;21.60;48.90;;;;;;4989351;28;20510;-83
2021/04/05 07:44:55;;;;;;;1.00;0.73;;;21.60;48.80;;;;;;4989870;28;20417;-83
2021/04/05 07:47:54;;;;;;;1.17;0.80;;;21.60;48.80;;;;;;4989516;28;20413;-83
2021/04/05 07:50:47;;;;;;;0.80;0.60;;;21.60;48.80;;;;;;4989611;28;20428;-82
2021/04/05 07:53:29;;;;;;;1.10;0.90;;;21.60;48.80;;;;;;4989415;28;20405;-82
2021/04/05 07:56:01;;;;;;;0.80;0.60;;;21.60;48.90;;;;;;4989710;28;20438;-83
2021/04/05 07:58:52;;;;;;;0.90;0.60;;;21.60;49.00;;;;;;4989766;28;20424;-82
2021/04/05 08:01:35;;;;;;;4.00;0.60;;;21.60;48.90;;;;;;4989316;28;20471;-83
2021/04/05 08:04:51;;;;;;;1.07;0.80;;;21.60;48.90;;;;;;4989420;28;20495;-83
2021/04/05 08:07:50;;;;;;;1.03;0.70;;;21.60;48.80;;;;;;4913046;29;20416;-83
2021/04/05 08:13:57;;;;;;;1.00;0.90;;;21.60;48.80;;;;;;4896082;29;20424;-83
2021/04/05 08:16:58;;;;;;;0.80;0.70;;;21.60;49.20;;;;;;4939404;29;20415;-84
2021/04/05 08:19:42;;;;;;;0.90;0.70;;;21.60;48.80;;;;;;4950202;29;20414;-83
2021/04/05 08:22:23;;;;;;;1.03;0.70;;;21.60;48.90;;;;;;4954618;29;20461;-82
2021/04/05 08:28:42;;;;;;;1.10;0.70;;;21.60;48.90;;;;;;4940234;29;20443;-82
2021/04/05 08:31:08;;;;;;;0.90;0.80;;;21.60;49.50;;;;;;4938129;29;20492;-83
2021/04/05 08:33:43;;;;;;;1.40;0.80;;;21.60;49.50;;;;;;4953916;29;20443;-83
2021/04/05 08:36:46;;;;;;;0.90;0.70;;;21.60;48.90;;;;;;4937867;29;20187;-83
2021/04/05 08:39:25;;;;;;;0.80;0.60;;;21.60;48.80;;;;;;4923738;29;20437;-84
2021/04/05 08:42:21;;;;;;;0.80;0.60;;;21.60;48.90;;;;;;4960400;28;20451;-83
2021/04/05 08:45:03;;;;;;;0.90;0.70;;;21.70;48.90;;;;;;5031970;28;20423;-82
2021/04/05 08:47:30;;;;;;;0.90;0.63;;;21.70;49.10;;;;;;5032706;28;20419;-83
2021/04/05 08:50:08;;;;;;;0.90;0.60;;;21.60;49.00;;;;;;5032661;28;20420;-83
2021/04/05 08:52:45;;;;;;;0.90;0.70;;;21.70;49.30;;;;;;5034007;28;20399;-82
2021/04/05 08:55:14;;;;;;;0.90;0.77;;;21.80;49.10;;;;;;5033406;28;20430;-83
2021/04/05 08:57:47;;;;;;;1.00;0.80;;;21.60;48.90;;;;;;5034069;28;20448;-83
2021/04/05 09:00:16;;;;;;;1.00;0.70;;;21.70;49.00;;;;;;5015915;28;20412;-82
2021/04/05 09:03:04;;;;;;;1.00;0.70;;;21.70;49.00;;;;;;5031599;28;20470;-82
2021/04/05 09:05:33;;;;;;;0.80;0.70;;;21.70;48.90;;;;;;5033485;28;20427;-82
2021/04/05 09:08:07;;;;;;;0.90;0.70;;;21.70;49.10;;;;;;5032556;28;20419;-83
2021/04/05 09:10:39;;;;;;;1.00;0.80;;;21.80;49.10;;;;;;5015280;28;20421;-82
2021/04/05 09:13:11;;;;;;;0.87;0.70;;;21.70;49.10;;;;;;5032898;28;20415;-82
2021/04/05 09:15:49;;;;;;;1.00;0.80;;;21.70;49.20;;;;;;5032765;28;20419;-82
2021/04/05 09:18:29;;;;;;;0.80;0.70;;;21.70;48.70;;;;;;5033872;28;20398;-82
2021/04/05 09:21:18;;;;;;;0.80;0.67;;;21.70;48.80;;;;;;5032121;28;20410;-82
2021/04/05 09:24:22;;;;;;;1.00;0.70;;;21.70;48.90;;;;;;5034335;28;20832;-81
2021/04/05 09:27:08;;;;;;;0.80;0.60;;;21.70;48.80;;;;;;5033325;28;20391;-83
2021/04/05 09:30:05;;;;;;;0.90;0.70;;;21.70;48.80;;;;;;5034160;28;20455;-82
2021/04/05 09:32:52;;;;;;;0.80;0.60;;;21.70;49.00;;;;;;5031095;28;20439;-83
2021/04/05 09:35:45;;;;;;;0.83;0.67;;;21.70;48.80;;;;;;5032615;28;20760;-83
2021/04/05 09:38:25;;;;;;;0.87;0.70;;;21.70;48.80;;;;;;5045041;28;20431;-83
2021/04/05 09:41:17;;;;;;;0.80;0.67;;;21.80;48.90;;;;;;5034685;28;20749;-83
2021/04/05 09:44:20;;;;;;;1.27;0.73;;;21.70;48.80;;;;;;5051707;28;20415;-83
2021/04/05 09:47:15;;;;;;;0.80;0.70;;;21.70;48.80;;;;;;5051752;28;20418;-83
2021/04/05 09:49:47;;;;;;;0.90;0.70;;;21.60;48.80;;;;;;5034910;28;20409;-83
2021/04/05 09:52:18;;;;;;;1.00;0.70;;;21.60;49.40;;;;;;5035504;28;20410;-82
2021/04/05 09:55:02;;;;;;;0.90;0.63;;;21.60;48.80;;;;;;5052513;28;20398;-83
2021/04/05 10:00:57;;;;;;;0.80;0.70;;;21.70;48.80;;;;;;5051398;28;20421;-82
2021/04/05 10:03:27;;;;;;;0.80;0.60;;;21.60;49.10;;;;;;5048529;28;20406;-82
2021/04/05 10:05:54;;;;;;;0.90;0.67;;;21.60;48.80;;;;;;5031446;28;20427;-81
2021/04/05 10:08:38;;;;;;;0.90;0.60;;;21.70;49.10;;;;;;5049174;28;20414;-80
2021/04/05 10:11:16;;;;;;;0.90;0.70;;;21.70;48.90;;;;;;5016513;28;20415;-80
2021/04/05 10:13:48;;;;;;;1.10;0.87;;;21.70;48.90;;;;;;5033784;28;20478;-81
2021/04/05 10:16:20;;;;;;;0.93;0.70;;;21.70;49.00;;;;;;5049296;28;20482;-81
2021/04/05 10:18:56;;;;;;;1.20;0.80;;;21.70;48.90;;;;;;5030809;28;20419;-82
2021/04/05 10:21:24;;;;;;;0.90;0.73;;;21.70;48.80;;;;;;5031168;28;20454;-82
2021/04/05 10:23:51;;;;;;;1.10;1.00;;;21.70;48.90;;;;;;5030034;28;20418;-82
2021/04/05 10:26:19;;;;;;;0.90;0.60;;;21.70;48.90;;;;;;5029773;28;20411;-82
2021/04/05 10:28:46;;;;;;;0.90;0.67;;;21.70;49.00;;;;;;5028808;28;20862;-82
2021/04/05 10:31:18;;;;;;;1.53;0.70;;;21.70;49.00;;;;;;5029492;28;20464;-82
2021/04/05 10:33:59;;;;;;;1.00;0.60;;;21.70;48.90;;;;;;5046358;28;20509;-82
2021/04/05 10:36:27;;;;;;;0.97;0.60;;;21.70;48.90;;;;;;5048370;28;20399;-82
2021/04/05 10:38:53;;;;;;;1.03;0.70;;;21.60;48.90;;;;;;5030582;28;20423;-83
2021/04/05 10:41:24;;;;;;;1.00;0.70;;;21.70;48.90;;;;;;5047544;28;20457;-82
2021/04/05 10:43:58;;;;;;;1.00;0.70;;;21.20;48.30;;;;;;5046686;28;20509;-82
2021/04/05 10:46:29;;;;;;;0.90;0.63;;;21.60;48.60;;;;;;5047065;28;20441;-81
2021/04/05 10:48:58;;;;;;;1.00;0.70;;;21.60;48.70;;;;;;5044701;28;20417;-82
2021/04/05 10:51:27;;;;;;;1.00;0.70;;;21.60;48.80;;;;;;5029016;28;20538;-81
2021/04/05 10:54:07;;;;;;;1.00;0.70;;;21.60;48.70;;;;;;5029338;28;20418;-82
2021/04/05 10:56:39;;;;;;;0.80;0.60;;;21.60;48.50;;;;;;5046709;28;20386;-81
2021/04/05 10:59:16;;;;;;;0.90;0.70;;;21.60;48.80;;;;;;5028444;28;20414;-82
2021/04/05 11:01:51;;;;;;;1.00;0.70;;;21.60;48.60;;;;;;5028839;28;20830;-82
2021/04/05 11:04:21;;;;;;;1.03;0.80;;;21.60;48.60;;;;;;5046259;28;20421;-81
2021/04/05 11:06:49;;;;;;;1.10;0.67;;;21.60;48.80;;;;;;5046886;28;20413;-83
2021/04/05 11:09:17;;;;;;;1.30;0.80;;;21.50;49.40;;;;;;5031131;28;20414;-82
2021/04/05 11:11:44;;;;;;;1.03;0.80;;;21.60;48.80;;;;;;5028794;28;20418;-82
2021/04/05 11:14:16;;;;;;;1.00;0.70;;;21.60;48.90;;;;;;5029564;28;20935;-81
2021/04/05 11:16:55;;;;;;;0.90;0.70;;;21.60;48.80;;;;;;5047209;28;20441;-82
2021/04/05 11:19:51;;;;;;;1.00;0.73;;;21.60;48.80;;;;;;5028962;28;20918;-81
2021/04/05 11:22:19;;;;;;;1.20;0.90;;;21.60;48.70;;;;;;5047674;28;20464;-82
2021/04/05 11:24:54;;;;;;;1.00;0.80;;;21.60;48.90;;;;;;5045311;28;20402;-81
2021/04/05 11:27:25;;;;;;;0.90;0.70;;;21.60;48.80;;;;;;5028826;28;20473;-82
2021/04/05 11:29:53;;;;;;;1.20;0.80;;;21.60;48.90;;;;;;5045516;28;20409;-82
2021/04/05 11:32:27;;;;;;;1.07;0.70;;;21.60;49.20;;;;;;5045771;28;20505;-82
2021/04/05 11:34:57;;;;;;;1.20;0.90;;;21.60;48.90;;;;;;5026898;28;20474;-82
2021/04/05 11:37:28;;;;;;;1.17;0.80;;;21.60;48.80;;;;;;5027967;28;20832;-81
2021/04/05 11:40:11;;;;;;;0.90;0.70;;;21.60;48.80;;;;;;5028929;28;20410;-82
2021/04/05 11:42:46;;;;;;;0.80;0.70;;;21.60;48.60;;;;;;5044395;28;20450;-82
2021/04/05 11:45:19;;;;;;;0.90;0.70;;;21.60;48.80;;;;;;5028203;28;20430;-82
2021/04/05 11:47:47;;;;;;;0.80;0.60;;;21.60;48.80;;;;;;5027951;28;20434;-82
2021/04/05 11:50:15;;;;;;;1.07;0.77;;;21.60;48.80;;;;;;5028912;28;20418;-82
2021/04/05 11:53:22;;;;;;;1.00;0.70;;;21.60;48.90;;;;;;5046425;28;20413;-82
2021/04/05 11:55:51;;;;;;;0.90;0.70;;;21.20;48.40;;;;;;4965886;28;20432;-82
2021/04/05 11:58:25;;;;;;;1.20;0.77;;;21.60;48.90;;;;;;4949485;29;20417;-82
2021/04/05 12:00:54;;;;;;;0.90;0.70;;;21.60;48.70;;;;;;4965882;29;20438;-83
2021/04/05 12:03:29;;;;;;;0.97;0.80;;;21.60;48.80;;;;;;4966529;29;20410;-82
2021/04/05 12:06:01;;;;;;;1.07;0.80;;;21.60;48.70;;;;;;4949708;29;20422;-82
2021/04/05 12:09:02;;;;;;;;;;;;;;;;;;;;;
2021/04/05 12:11:41;;;;;;;1.10;0.80;;;21.60;48.70;;;;;;4966183;28;20461;-82
2021/04/05 12:14:14;;;;;;;0.90;0.70;;;21.60;48.70;;;;;;4966615;29;20418;-82
2021/04/05 12:16:46;;;;;;;1.10;0.80;;;21.60;48.80;;;;;;4965634;29;20406;-82
2021/04/05 12:22:30;;;;;;;0.80;0.60;;;21.60;48.70;;;;;;4962364;29;21059;-81
2021/04/05 12:24:59;;;;;;;1.00;0.70;;;21.60;48.90;;;;;;4965217;29;20406;-83
2021/04/05 12:27:37;;;;;;;0.80;0.60;;;21.60;48.80;;;;;;5035776;28;20419;-82
2021/04/05 12:30:09;;;;;;;1.00;0.80;;;21.60;49.00;;;;;;5027434;28;20434;-81
2021/04/05 12:32:38;;;;;;;0.90;0.70;;;21.60;48.90;;;;;;5045360;28;20457;-81
2021/04/05 12:35:05;;;;;;;0.90;0.70;;;21.60;48.80;;;;;;5027683;28;20449;-81
2021/04/05 12:37:32;;;;;;;1.53;1.00;;;21.60;48.80;;;;;;5045397;28;20434;-82
2021/04/05 12:40:01;;;;;;;1.00;0.80;;;21.60;49.00;;;;;;5044667;28;20406;-81
2021/04/05 12:42:30;;;;;;;1.30;0.97;;;21.60;48.80;;;;;;5044576;28;20453;-81
2021/04/05 12:45:11;;;;;;;0.90;0.80;;;21.60;48.80;;;;;;5030312;28;20449;-81
2021/04/05 12:47:41;;;;;;;0.93;0.73;;;21.60;48.80;;;;;;5042711;28;20480;-82
2021/04/05 12:50:14;;;;;;;0.80;0.60;;;21.40;48.70;;;;;;5045456;28;20403;-82
2021/04/05 12:52:41;;;;;;;0.87;0.70;;;21.60;48.90;;;;;;5044885;28;20406;-82
2021/04/05 12:55:41;;;;;;;1.07;0.80;;;21.60;49.20;;;;;;5046035;28;20453;-85
2021/04/05 12:58:07;;;;;;;1.20;0.80;;;21.60;49.00;;;;;;5033069;28;20438;-81
2021/04/05 13:00:39;;;;;;;1.20;0.73;;;21.60;48.80;;;;;;5027641;28;20472;-83
2021/04/05 13:03:12;;;;;;;0.97;0.70;;;21.60;48.80;;;;;;5027871;28;20812;-82
2021/04/05 13:05:56;;;;;;;1.00;0.70;;;21.60;49.70;;;;;;5026995;28;20454;-82
2021/04/05 13:08:32;;;;;;;0.90;0.70;;;21.60;48.70;;;;;;5029796;28;20453;-82
2021/04/05 13:11:13;;;;;;;1.27;0.70;;;21.60;48.70;;;;;;5048279;28;20779;-82
2021/04/05 13:13:49;;;;;;;1.40;0.80;;;21.60;49.00;;;;;;5030774;28;20434;-81
2021/04/05 13:16:39;;;;;;;1.10;0.70;;;21.60;48.90;;;;;;5031371;28;20785;-81
2021/04/05 13:19:14;;;;;;;1.17;0.73;;;21.60;48.80;;;;;;5048652;28;20395;-81
2021/04/05 13:21:41;;;;;;;1.50;0.90;;;21.60;48.90;;;;;;5049487;28;20457;-81
2021/04/05 13:24:14;;;;;;;1.30;1.00;;;21.60;48.90;;;;;;5048343;28;20433;-82
2021/04/05 13:26:54;;;;;;;1.00;0.73;;;21.60;48.80;;;;;;5047831;28;20771;-82
2021/04/05 13:29:29;;;;;;;1.00;0.70;;;21.60;48.70;;;;;;5048248;28;20426;-82
2021/04/05 13:32:08;;;;;;;1.30;0.97;;;21.60;48.90;;;;;;5048192;28;20405;-81
2021/04/05 13:34:36;;;;;;;0.90;0.70;;;21.60;48.90;;;;;;5032389;28;20518;-82
2021/04/05 13:37:12;;;;;;;1.73;0.97;;;21.60;48.90;;;;;;5064105;28;20429;-81
2021/04/05 13:39:39;;;;;;;0.90;0.70;;;21.50;48.80;;;;;;5025179;28;20830;-81
2021/04/05 13:42:13;;;;;;;0.97;0.70;;;21.60;48.80;;;;;;5030906;28;20476;-82